Terminal Aerodrome Forecast
Issued by NWS

Home | Current Version | Previous Version | Graphics & Text | Print | Product List | Glossary On
Versions: 1 2 3 4 5 6 7 8 9 10 11 12 13 14
000
FTUS45 KRIW 050500
TAFBPI
TAF
KBPI 050525Z 0506/0606 20008KT P6SM SCT040 BKN080
     FM051200 VRB05KT P6SM SCT040 BKN080
     FM051800 VRB06KT P6SM VCSH SCT050 BKN100
     FM052000 VRB10G20KT P6SM VCTS SCT040CB BKN080
     FM060300 34010KT P6SM VCSH SCT040 BKN080=

USA.gov is the U.S. government's official web portal to all federal, state and local government web resources and services.